Jefferson Proving Ground, Indiana
Current Conditions -  °F | °C
As of 3:53 AM on Sunday 23 Nov 2014 (Local Time) from KLOU Reporting Station
Overcast Overcast  
Wind Chill: 53°   Ceiling: 4600
Heat Index: 53°   Visibility: 10mi
Dew Point: 38°   Wind: 7mph
Humidity: 57%   Direction: 170°S
Pressure: 30.01"   Gusts: NA
Location:  38.7969°N, 85.4186°W
Report Text: KLOU 230853Z AUTO 17006KT 10SM FEW032 BKN046 OVC055 12/03 A3001 RMK AO2 SLP162 T01170033 56013
Loading
Personal Weather Stations






























Interactive Weather Map New forecast layout! Learn more

10-Day Weather Forecast

Advertisements
Track Severe Weather on mobile